Vila Real, Portugal

4:02 PM WEST on August 01, 2014 (GMT +0100)
Moimenta Da Beira (IMOIMENT2) Elev 2116 ft | 40.98 °N, 7.61 °W | Change Station

Current weather conditions updated 2 minutes ago

Partly Cloudy
Partly Cloudy
71.7 °F
Feels Like 77 °F
N
6.9
Wind Variable Wind from NW
Gusts 13.0 mph

Tomorrow is forecast to be Cooler than today. Scattered thunderstorms possible.

Today
High -- | Low -- °F
--% Chance of Precip.
Yesterday
High -- | Low -- °F
Precip. -- in
6:25 AM 8:47 PM
Waxing Crescent, 27% visible
Pressure 29.98 in
Visibility 6.2 miles
Clouds Few 1200 ft
Heat Index 77 °F
Dew Point 52 °F
Humidity 50%
Rainfall 0.00 in
Snow Depth Not available.
UV 9 out of 12
Pollen Not available.
Air Quality Not available.
Flu Activity Not available.
METAR LPPR 011430Z 30009KT 9999 FEW012 20/16 Q1015

More Conditions Fewer Conditions

Pressure 29.98 in
Visibility 6.2 miles
Clouds Few 1200 ft
Heat Index 77 °F
Dew Point 52 °F
Humidity 50%
Rainfall 0.00 in
Snow Depth Not available.
UV 9 out of 12
Pollen Not available.
Air Quality Not available.
Flu Activity Not available.
METAR LPPR 011430Z 30009KT 9999 FEW012 20/16 Q1015

More Conditions Fewer Conditions

10-Day Weather Forecast

Almanac

Astronomy

Aug. 01, 2014 Rise Set
Actual Time 6:25 AM WEST 8:47 PM WEST
Civil Twilight 5:54 AM WEST 9:18 PM WEST
Nautical Twilight 5:16 AM WEST 9:57 PM WEST
Astronomical Twilight 4:33 AM WEST 10:39 PM WEST
Moon 11:40 AM WEST 11:21 PM WEST
Length of Visible Light 15h 23m
Length of Day
14h 21m
Tomorrow will be 2m 5s shorter.
Waxing Crescent, 27% of the Moon is Illuminated
Today
Waxing Crescent
Aug 3
First Quarter
Aug 10
Full
Aug 17
Last Quarter
Aug 25
New

Today's Extremes

Country Highs Country Lows

Community

WunderPhotos

Upload Photos

1,739,602 photos uploaded!

Nearby

Snow Depth

Not available.

Earthquake Activity

City Distance Mag. Time & Date
No recent earthquake activity has been reported nearby.
Minimum magnitude displayed is 2.5.

Coastal Water Temperatures

Place Temperature
No Stations Reporting

Nearby Weather Stations

Station Location Temp. Heat Index Dew Point Humidity Wind Precip. Elev Updated Type
Moimenta Da Beira, Moimenta Da Beira 71.7 °F 77 °F 52 °F 50% NW  at  6.9 mph 0.00 in / hr 2116 ft 4:00 PM WEST Normal
Lixa - ESL, Lixa 70.3 °F 77 °F 45 °F 40% WNW  at  4.3 mph 0.00 in / hr 1266 ft 4:02 PM WEST Rapid Fire

Show More Stations Show Fewer Stations